Time;durP1;ratioP1;P1;durP2;ratioP2;P2;SDS_P1;SDS_P2;PMS_P1;PMS_P2;Temp;Humidity;BMP_temperature;BMP_pressure;BME280_temperature;BME280_humidity;BME280_pressure;Samples;Min_cycle;Max_cycle;Signal;HPM_P1;HPM_P2
2023/12/10 00:00:31;;;;;;;14.60;3.60;;;10.90;87.30;;;;;;2542213;28;20045;-77
2023/12/10 00:01:45;;;;;;;22.58;6.05;;;10.90;87.10;;;;;;2542308;28;20049;-77
2023/12/10 00:02:59;;;;;;;15.10;4.85;;;10.90;87.10;;;;;;2541928;28;20067;-78
2023/12/10 00:04:14;;;;;;;15.20;3.80;;;10.90;86.90;;;;;;2542329;28;20041;-76
2023/12/10 00:05:29;;;;;;;24.50;5.05;;;10.90;86.80;;;;;;2542276;28;20124;-78
2023/12/10 00:06:44;;;;;;;18.98;4.43;;;10.90;86.70;;;;;;2534162;28;20145;-78
2023/12/10 00:07:58;;;;;;;23.20;5.60;;;10.90;86.50;;;;;;2541825;28;20526;-78
2023/12/10 00:09:13;;;;;;;20.08;5.97;;;10.90;86.30;;;;;;2542156;28;20048;-78
2023/12/10 00:10:26;;;;;;;19.17;3.95;;;10.90;86.10;;;;;;2541901;28;20060;-77
2023/12/10 00:11:41;;;;;;;13.75;4.22;;;10.80;85.90;;;;;;2550756;28;20766;-77
2023/12/10 00:12:55;;;;;;;19.33;5.05;;;10.80;85.80;;;;;;2548452;28;20068;-76
2023/12/10 00:14:09;;;;;;;26.40;6.25;;;10.80;85.70;;;;;;2542192;28;20040;-77
2023/12/10 00:15:23;;;;;;;23.30;4.65;;;10.90;85.70;;;;;;2541634;28;20044;-76
2023/12/10 00:16:38;;;;;;;22.80;7.00;;;10.80;85.60;;;;;;2542278;28;20045;-77
2023/12/10 00:17:51;;;;;;;11.02;5.15;;;10.80;85.50;;;;;;2542168;28;20049;-79
2023/12/10 00:19:06;;;;;;;16.10;6.03;;;10.80;85.50;;;;;;2540347;28;20770;-77
2023/12/10 00:20:20;;;;;;;20.35;4.03;;;10.80;85.50;;;;;;2541463;28;20045;-78
2023/12/10 00:21:37;;;;;;;16.88;6.50;;;10.80;85.60;;;;;;2541411;28;20051;-78
2023/12/10 00:22:51;;;;;;;21.50;7.78;;;10.80;85.50;;;;;;2544276;28;20048;-77
2023/12/10 00:24:06;;;;;;;22.55;8.70;;;10.80;85.40;;;;;;2545899;28;20036;-77
2023/12/10 00:25:20;;;;;;;20.55;5.13;;;10.80;85.20;;;;;;2541896;28;20041;-78
2023/12/10 00:26:34;;;;;;;35.22;6.85;;;10.80;85.10;;;;;;2541675;28;20087;-77
2023/12/10 00:27:48;;;;;;;18.25;5.50;;;10.80;85.10;;;;;;2541267;28;20052;-77
2023/12/10 00:29:04;;;;;;;19.33;4.70;;;10.90;85.00;;;;;;2540978;28;20045;-77
2023/12/10 00:30:18;;;;;;;22.98;5.00;;;10.80;84.90;;;;;;2541651;28;20045;-78
2023/12/10 00:31:33;;;;;;;19.48;6.43;;;10.80;84.80;;;;;;2541669;28;20033;-77
2023/12/10 00:32:47;;;;;;;29.70;8.07;;;10.80;84.70;;;;;;2543890;28;20045;-77
2023/12/10 00:34:02;;;;;;;24.13;5.60;;;10.80;84.60;;;;;;2543989;28;20068;-78
2023/12/10 00:35:16;;;;;;;27.48;7.40;;;10.80;84.50;;;;;;2543749;28;20170;-77
2023/12/10 00:36:30;;;;;;;26.65;4.93;;;10.90;84.60;;;;;;2552358;28;20059;-77
2023/12/10 00:37:45;;;;;;;20.92;6.55;;;10.80;84.50;;;;;;2535813;28;20056;-78
2023/12/10 00:39:00;;;;;;;17.20;5.63;;;10.80;84.30;;;;;;2543720;28;20098;-77
2023/12/10 00:40:15;;;;;;;27.50;6.50;;;10.80;84.20;;;;;;2543958;28;20144;-76
2023/12/10 00:41:29;;;;;;;17.63;3.78;;;10.80;84.00;;;;;;2543968;28;20068;-78
2023/12/10 00:42:43;;;;;;;20.73;6.65;;;10.80;83.90;;;;;;2544145;28;20056;-77
2023/12/10 00:43:58;;;;;;;26.25;4.93;;;10.80;83.80;;;;;;2543519;28;20043;-78
2023/12/10 00:45:12;;;;;;;21.77;5.32;;;10.80;83.80;;;;;;2544228;28;20040;-76
2023/12/10 00:46:27;;;;;;;28.02;4.55;;;10.90;83.80;;;;;;2544112;28;20385;-76
2023/12/10 00:47:41;;;;;;;17.02;6.15;;;10.90;83.70;;;;;;2543050;28;20068;-78
2023/12/10 00:48:56;;;;;;;24.55;5.50;;;10.90;83.50;;;;;;2543749;28;20124;-78
2023/12/10 00:50:10;;;;;;;21.92;4.38;;;10.90;83.40;;;;;;2543668;28;20048;-77
2023/12/10 00:51:24;;;;;;;17.60;4.80;;;10.90;83.30;;;;;;2543294;28;20063;-77
2023/12/10 00:52:38;;;;;;;26.33;7.13;;;10.90;83.10;;;;;;2543883;28;20425;-78
2023/12/10 00:53:54;;;;;;;29.50;7.07;;;10.90;82.90;;;;;;2543807;28;20442;-77
2023/12/10 00:55:09;;;;;;;17.25;7.70;;;10.90;82.80;;;;;;2543243;28;20415;-78
2023/12/10 00:56:23;;;;;;;14.77;5.03;;;10.90;82.80;;;;;;2544140;28;20104;-79
2023/12/10 00:57:37;;;;;;;17.50;6.35;;;10.90;82.70;;;;;;2552991;28;20048;-78
2023/12/10 00:58:52;;;;;;;16.02;4.95;;;10.90;82.60;;;;;;2551251;28;20045;-78
2023/12/10 01:00:07;;;;;;;19.88;5.53;;;10.90;82.50;;;;;;2543380;28;20099;-79
2023/12/10 01:01:22;;;;;;;21.30;4.90;;;10.90;82.50;;;;;;2550448;28;20072;-78
2023/12/10 01:02:36;;;;;;;26.42;8.13;;;10.90;82.50;;;;;;2545006;28;20079;-78
2023/12/10 01:03:50;;;;;;;28.23;8.70;;;10.90;82.60;;;;;;2543344;28;20118;-79
2023/12/10 01:05:05;;;;;;;23.42;4.85;;;10.90;82.50;;;;;;2543848;28;20409;-79
2023/12/10 01:06:20;;;;;;;20.27;5.25;;;11.00;82.30;;;;;;2544017;28;20486;-79
2023/12/10 01:07:34;;;;;;;27.35;5.88;;;10.90;82.10;;;;;;2551195;28;20049;-79
2023/12/10 01:08:48;;;;;;;21.13;5.30;;;10.90;81.90;;;;;;2551779;28;20119;-77
2023/12/10 01:10:05;;;;;;;22.90;5.10;;;11.00;81.90;;;;;;2543984;28;20052;-78
2023/12/10 01:11:19;;;;;;;28.10;5.18;;;11.00;81.70;;;;;;2543254;28;20048;-79
2023/12/10 01:12:36;;;;;;;30.42;7.38;;;10.90;81.60;;;;;;2543877;28;20053;-79
2023/12/10 01:13:50;;;;;;;21.63;5.18;;;10.90;81.50;;;;;;2546262;28;20091;-79
2023/12/10 01:15:05;;;;;;;28.10;6.65;;;11.00;81.40;;;;;;2548888;28;20052;-78
2023/12/10 01:16:20;;;;;;;30.95;6.45;;;10.90;81.30;;;;;;2543950;28;20045;-79
2023/12/10 01:17:34;;;;;;;20.83;4.57;;;10.90;81.20;;;;;;2551976;28;20048;-78
2023/12/10 01:18:48;;;;;;;26.05;5.38;;;11.00;81.20;;;;;;2543826;28;20041;-78
2023/12/10 01:20:03;;;;;;;12.85;4.63;;;10.90;81.10;;;;;;2543289;28;20044;-79
2023/12/10 01:21:18;;;;;;;29.48;7.15;;;11.00;81.10;;;;;;2549483;28;20044;-78
2023/12/10 01:22:32;;;;;;;17.08;5.43;;;10.90;80.90;;;;;;2545864;28;20044;-78
2023/12/10 01:23:48;;;;;;;27.27;6.30;;;10.90;80.80;;;;;;2544819;28;20421;-78
2023/12/10 01:25:02;;;;;;;24.48;4.97;;;11.00;80.70;;;;;;2550002;28;20517;-78
2023/12/10 01:26:18;;;;;;;18.85;5.35;;;10.90;80.70;;;;;;2543795;28;20044;-79
2023/12/10 01:27:32;;;;;;;26.42;4.63;;;10.90;80.70;;;;;;2542795;28;20040;-79
2023/12/10 01:28:46;;;;;;;15.75;3.80;;;10.90;80.60;;;;;;2543436;28;20049;-80
2023/12/10 01:30:00;;;;;;;24.10;4.75;;;10.90;80.30;;;;;;2543768;28;20049;-78
2023/12/10 01:31:15;;;;;;;24.02;4.72;;;10.90;80.20;;;;;;2544256;28;20503;-79
2023/12/10 01:32:29;;;;;;;26.02;5.22;;;11.00;80.30;;;;;;2543824;28;20045;-78
2023/12/10 01:33:43;;;;;;;18.45;7.85;;;10.90;80.40;;;;;;2544656;28;20053;-77
2023/12/10 01:34:57;;;;;;;21.15;5.50;;;11.00;80.80;;;;;;2550103;28;20049;-77
2023/12/10 01:36:22;;;;;;;21.77;4.65;;;10.90;80.90;;;;;;2543604;28;20397;-78
2023/12/10 01:37:36;;;;;;;24.38;6.57;;;10.90;81.20;;;;;;2543564;28;20136;-78
2023/12/10 01:38:51;;;;;;;24.30;5.32;;;10.90;81.70;;;;;;2543568;28;20068;-79
2023/12/10 01:40:08;;;;;;;18.17;4.28;;;10.80;81.90;;;;;;2543011;28;20048;-78
2023/12/10 01:41:25;;;;;;;19.30;4.05;;;10.80;82.10;;;;;;2543476;28;20102;-78
2023/12/10 01:42:40;;;;;;;14.13;3.20;;;10.70;82.10;;;;;;2543600;28;20144;-77
2023/12/10 01:43:55;;;;;;;15.90;2.67;;;10.60;82.10;;;;;;2543079;28;20045;-78
2023/12/10 01:45:09;;;;;;;7.20;2.42;;;10.50;82.10;;;;;;2538263;28;20057;-78
2023/12/10 01:46:24;;;;;;;17.42;3.10;;;10.40;82.30;;;;;;2550361;28;20401;-78
2023/12/10 01:47:40;;;;;;;11.18;3.30;;;10.20;82.50;;;;;;2553491;28;20044;-78
2023/12/10 01:48:56;;;;;;;12.98;2.90;;;10.20;82.80;;;;;;2543259;28;20045;-78
2023/12/10 01:50:11;;;;;;;17.10;3.80;;;10.10;83.10;;;;;;2543459;28;20041;-77
2023/12/10 01:51:26;;;;;;;17.50;5.93;;;10.00;83.50;;;;;;2542439;28;20400;-78
2023/12/10 01:52:41;;;;;;;15.65;3.33;;;9.90;83.80;;;;;;2543581;28;20049;-77
2023/12/10 01:53:56;;;;;;;16.92;3.92;;;9.90;84.20;;;;;;2543504;28;20044;-77
2023/12/10 01:55:11;;;;;;;14.43;7.13;;;9.80;84.30;;;;;;2543049;28;20079;-77
2023/12/10 01:56:29;;;;;;;7.50;2.38;;;9.70;84.40;;;;;;2543217;28;20045;-77
2023/12/10 01:57:42;;;;;;;16.00;4.15;;;9.60;84.70;;;;;;2551587;28;20101;-77
2023/12/10 01:58:58;;;;;;;9.90;3.85;;;9.50;85.00;;;;;;2546131;28;20048;-76
2023/12/10 02:00:12;;;;;;;23.63;6.63;;;9.40;85.50;;;;;;2548230;28;20060;-77
2023/12/10 02:01:27;;;;;;;13.68;2.92;;;9.30;86.10;;;;;;2543058;28;20048;-78
2023/12/10 02:02:42;;;;;;;13.20;4.40;;;9.20;86.60;;;;;;2543402;28;20486;-77
2023/12/10 02:03:57;;;;;;;15.07;4.28;;;9.20;87.20;;;;;;2542879;28;20051;-76
2023/12/10 02:05:11;;;;;;;9.07;2.95;;;9.10;87.60;;;;;;2543208;28;20406;-79
2023/12/10 02:06:25;;;;;;;24.90;5.47;;;9.10;88.20;;;;;;2543284;28;20041;-78
2023/12/10 02:07:41;;;;;;;17.73;4.65;;;9.10;88.60;;;;;;2542126;28;20124;-78
2023/12/10 02:08:57;;;;;;;15.13;4.50;;;9.10;89.00;;;;;;2543077;28;20048;-78
2023/12/10 02:10:10;;;;;;;14.43;6.78;;;9.10;89.30;;;;;;2543273;28;20565;-79
2023/12/10 02:11:27;;;;;;;21.77;4.10;;;9.10;89.50;;;;;;2542463;28;20049;-77
2023/12/10 02:12:43;;;;;;;21.95;4.78;;;9.10;89.80;;;;;;2543243;28;20045;-78
2023/12/10 02:13:58;;;;;;;22.58;7.03;;;9.10;90.00;;;;;;2543329;28;20037;-77
2023/12/10 02:15:13;;;;;;;17.88;5.47;;;9.00;90.00;;;;;;2542764;28;20076;-77
2023/12/10 02:16:28;;;;;;;30.02;6.28;;;9.00;90.10;;;;;;2543164;28;20037;-78
2023/12/10 02:17:42;;;;;;;18.35;4.28;;;9.00;90.10;;;;;;2543240;28;20053;-77
2023/12/10 02:18:57;;;;;;;25.77;3.55;;;9.00;90.20;;;;;;2545924;28;20055;-78
2023/12/10 02:20:12;;;;;;;13.20;4.40;;;9.00;90.30;;;;;;2538267;28;20041;-78
2023/12/10 02:21:29;;;;;;;12.30;4.30;;;9.00;90.30;;;;;;2532940;28;20480;-79
2023/12/10 02:22:51;;;;;;;20.77;4.38;;;9.00;90.40;;;;;;2533194;28;20418;-79
2023/12/10 02:24:09;;;;;;;17.15;2.80;;;9.00;90.40;;;;;;2532794;28;20038;-79
2023/12/10 02:25:31;;;;;;;15.45;3.97;;;8.90;90.40;;;;;;2526884;28;20049;-79
2023/12/10 02:26:46;;;;;;;13.35;3.38;;;8.90;90.30;;;;;;2523138;28;20057;-78
2023/12/10 02:28:01;;;;;;;14.48;3.13;;;8.90;90.40;;;;;;2522161;28;20553;-78
2023/12/10 02:29:15;;;;;;;12.00;3.75;;;8.80;90.40;;;;;;2523069;28;20052;-77
2023/12/10 02:30:30;;;;;;;21.20;3.70;;;8.80;90.40;;;;;;2537422;28;20052;-79
2023/12/10 02:31:45;;;;;;;13.68;4.10;;;8.80;90.50;;;;;;2532130;28;20042;-79
2023/12/10 02:32:59;;;;;;;14.82;5.88;;;8.80;90.60;;;;;;2523070;28;20046;-78
2023/12/10 02:34:13;;;;;;;9.02;3.30;;;8.80;90.60;;;;;;2523268;28;20044;-78
2023/12/10 02:35:27;;;;;;;22.85;5.28;;;8.80;90.70;;;;;;2522683;28;20049;-79
2023/12/10 02:36:42;;;;;;;17.15;3.70;;;8.80;90.70;;;;;;2523137;28;20049;-79
2023/12/10 02:37:56;;;;;;;11.85;5.88;;;8.70;90.70;;;;;;2523185;28;20050;-79
2023/12/10 02:39:11;;;;;;;19.67;7.22;;;8.70;90.70;;;;;;2522678;28;20042;-79
2023/12/10 02:40:25;;;;;;;33.15;7.40;;;8.70;90.80;;;;;;2523490;28;20038;-77
2023/12/10 02:41:41;;;;;;;16.35;4.07;;;8.70;90.90;;;;;;2533582;28;20099;-78
2023/12/10 02:42:54;;;;;;;16.35;3.60;;;8.70;91.00;;;;;;2530801;28;20152;-79
2023/12/10 02:44:09;;;;;;;22.77;4.95;;;8.80;91.10;;;;;;2522194;28;20160;-79
2023/12/10 02:45:23;;;;;;;25.38;6.63;;;8.80;91.00;;;;;;2522555;28;20049;-79
2023/12/10 02:46:38;;;;;;;15.43;3.47;;;8.80;91.10;;;;;;2523147;28;20046;-78
2023/12/10 02:47:52;;;;;;;28.30;7.97;;;8.90;91.10;;;;;;2522426;28;20046;-77
2023/12/10 02:49:06;;;;;;;23.75;5.07;;;8.90;91.10;;;;;;2522960;28;20038;-79
2023/12/10 02:50:20;;;;;;;19.70;4.05;;;8.90;91.10;;;;;;2522968;28;20052;-78
2023/12/10 02:51:35;;;;;;;17.00;4.03;;;9.00;91.10;;;;;;2522129;28;20041;-79
2023/12/10 02:52:48;;;;;;;20.55;5.30;;;9.00;91.00;;;;;;2523102;28;20058;-79
2023/12/10 02:54:03;;;;;;;22.15;4.15;;;9.00;91.00;;;;;;2522556;28;20046;-79
2023/12/10 02:55:17;;;;;;;25.73;5.35;;;9.10;91.00;;;;;;2522501;28;20068;-77
2023/12/10 02:56:32;;;;;;;25.80;7.85;;;9.10;91.30;;;;;;2522836;28;20046;-78
2023/12/10 02:57:47;;;;;;;21.92;5.10;;;9.10;90.90;;;;;;2531094;28;20049;-79
2023/12/10 02:59:02;;;;;;;14.65;5.55;;;9.10;90.80;;;;;;2522370;28;20069;-79
2023/12/10 03:00:16;;;;;;;25.90;7.05;;;9.20;90.80;;;;;;2522617;28;20567;-78
2023/12/10 03:01:30;;;;;;;22.05;5.63;;;9.20;90.70;;;;;;2529449;28;20039;-77
2023/12/10 03:02:44;;;;;;;19.77;5.43;;;9.20;90.60;;;;;;2523449;28;20050;-79
2023/12/10 03:03:59;;;;;;;18.38;4.47;;;9.20;90.50;;;;;;2522118;28;20042;-79
2023/12/10 03:05:13;;;;;;;35.95;6.72;;;9.30;90.40;;;;;;2527456;28;20053;-78
2023/12/10 03:06:27;;;;;;;20.10;8.20;;;9.30;90.30;;;;;;2527778;28;20052;-79
2023/12/10 03:07:41;;;;;;;12.48;4.40;;;9.30;90.10;;;;;;2532595;28;20053;-79
2023/12/10 03:08:56;;;;;;;17.42;4.10;;;9.40;90.00;;;;;;2536969;28;20120;-79
2023/12/10 03:10:09;;;;;;;14.38;5.38;;;9.40;89.90;;;;;;2536325;28;20049;-79
2023/12/10 03:11:24;;;;;;;17.00;4.75;;;9.40;89.60;;;;;;2523587;28;20529;-79
2023/12/10 03:12:38;;;;;;;22.02;3.88;;;9.50;89.40;;;;;;2532804;28;20057;-78
2023/12/10 03:13:54;;;;;;;25.73;5.47;;;9.40;89.10;;;;;;2526537;28;20046;-79
2023/12/10 03:15:08;;;;;;;25.88;4.93;;;9.50;88.90;;;;;;2533984;28;20492;-79
2023/12/10 03:16:23;;;;;;;23.45;6.32;;;9.50;88.70;;;;;;2540067;28;20111;-79
2023/12/10 03:17:36;;;;;;;28.80;7.22;;;9.50;88.50;;;;;;2531032;28;20054;-79
2023/12/10 03:18:51;;;;;;;20.92;6.50;;;9.50;88.20;;;;;;2535116;28;20051;-79
2023/12/10 03:20:07;;;;;;;14.05;4.22;;;9.50;88.00;;;;;;2540395;28;20048;-79
2023/12/10 03:21:21;;;;;;;19.25;4.45;;;9.60;87.80;;;;;;2539766;28;20120;-77
2023/12/10 03:22:35;;;;;;;16.83;4.50;;;9.60;87.60;;;;;;2536911;28;20049;-79
2023/12/10 03:23:50;;;;;;;18.92;5.20;;;9.60;87.30;;;;;;2544118;28;20037;-79
2023/12/10 03:25:04;;;;;;;24.85;7.70;;;9.60;87.00;;;;;;2541490;28;20068;-80
2023/12/10 03:26:19;;;;;;;19.48;4.95;;;9.60;86.70;;;;;;2540108;28;20037;-79
2023/12/10 03:27:34;;;;;;;23.38;4.95;;;9.60;86.50;;;;;;2529618;28;20061;-80
2023/12/10 03:28:48;;;;;;;15.25;4.40;;;9.70;86.30;;;;;;2542250;28;20083;-80
2023/12/10 03:30:04;;;;;;;25.83;3.55;;;9.60;86.00;;;;;;2537611;28;20041;-80
2023/12/10 03:31:19;;;;;;;20.48;5.63;;;9.70;85.80;;;;;;2538982;28;20097;-80
2023/12/10 03:32:33;;;;;;;20.50;4.60;;;9.70;85.60;;;;;;2527744;28;20054;-80
2023/12/10 03:33:50;;;;;;;20.52;5.70;;;9.70;85.30;;;;;;2526572;28;20147;-79
2023/12/10 03:35:04;;;;;;;14.80;4.55;;;9.70;85.20;;;;;;2544558;28;20045;-79
2023/12/10 03:36:19;;;;;;;18.83;4.72;;;9.70;85.10;;;;;;2539544;28;20057;-80
2023/12/10 03:37:33;;;;;;;12.43;3.20;;;9.70;84.80;;;;;;2541823;28;20443;-79
2023/12/10 03:38:47;;;;;;;16.35;3.10;;;9.70;84.50;;;;;;2534290;28;20042;-78
2023/12/10 03:40:02;;;;;;;14.70;4.70;;;9.80;84.50;;;;;;2524592;28;20065;-78
2023/12/10 03:41:17;;;;;;;12.15;4.40;;;9.80;84.20;;;;;;2534287;28;20037;-79
2023/12/10 03:42:31;;;;;;;26.30;4.05;;;9.80;83.80;;;;;;2544799;28;20448;-78
2023/12/10 03:43:45;;;;;;;27.27;6.85;;;9.80;83.50;;;;;;2535187;28;20041;-80
2023/12/10 03:44:59;;;;;;;25.13;4.25;;;9.80;83.30;;;;;;2525248;28;20054;-79
2023/12/10 03:46:15;;;;;;;19.73;3.85;;;9.80;83.10;;;;;;2534259;28;20040;-79
2023/12/10 03:47:30;;;;;;;21.85;4.30;;;9.80;82.70;;;;;;2537323;28;20045;-79
2023/12/10 03:48:43;;;;;;;16.08;3.55;;;9.90;82.70;;;;;;2526877;28;20609;-78
2023/12/10 03:49:58;;;;;;;16.20;3.45;;;9.90;82.60;;;;;;2542621;28;20049;-79
2023/12/10 03:51:12;;;;;;;22.55;5.80;;;9.90;82.50;;;;;;2543975;28;20057;-78
2023/12/10 03:52:26;;;;;;;26.73;6.88;;;9.90;82.30;;;;;;2541595;28;20044;-80
2023/12/10 03:53:40;;;;;;;21.05;4.20;;;9.90;82.20;;;;;;2534796;28;20053;-80
2023/12/10 03:54:55;;;;;;;24.30;5.57;;;9.90;82.20;;;;;;2542968;28;20512;-80
2023/12/10 03:56:09;;;;;;;16.58;4.22;;;9.90;82.00;;;;;;2537183;28;20457;-79
2023/12/10 03:57:24;;;;;;;14.23;4.15;;;10.00;82.00;;;;;;2544502;28;20045;-79
2023/12/10 03:58:38;;;;;;;11.27;2.63;;;10.00;81.80;;;;;;2544705;28;20049;-80
2023/12/10 03:59:52;;;;;;;23.40;4.68;;;10.00;81.70;;;;;;2535276;28;20046;-80
2023/12/10 04:01:06;;;;;;;24.38;4.43;;;10.00;81.50;;;;;;2541146;28;20052;-80
2023/12/10 04:02:22;;;;;;;21.52;5.50;;;10.00;81.30;;;;;;2540007;28;20047;-80
2023/12/10 04:03:36;;;;;;;25.27;4.43;;;10.00;81.10;;;;;;2536554;28;20052;-79
2023/12/10 04:04:51;;;;;;;19.20;3.75;;;10.00;81.00;;;;;;2527264;28;20046;-80
2023/12/10 04:06:05;;;;;;;25.02;5.00;;;10.10;80.80;;;;;;2540610;28;20491;-79
2023/12/10 04:09:58;;;;;;;16.42;3.10;;;10.10;80.20;;;;;;2537500;28;20091;-79
2023/12/10 04:11:11;;;;;;;14.43;3.50;;;10.10;80.70;;;;;;2535837;28;20075;-79
2023/12/10 04:12:26;;;;;;;16.08;4.15;;;10.10;80.90;;;;;;2544319;28;20049;-80
2023/12/10 04:13:40;;;;;;;21.92;4.47;;;10.10;80.80;;;;;;2544588;28;20053;-80
2023/12/10 04:14:54;;;;;;;15.75;4.50;;;10.10;80.70;;;;;;2536095;28;20410;-79
2023/12/10 04:16:08;;;;;;;20.40;3.67;;;10.10;80.60;;;;;;2539911;28;20049;-80
2023/12/10 04:17:24;;;;;;;14.73;3.67;;;10.10;80.30;;;;;;2539537;28;20052;-79
2023/12/10 04:18:38;;;;;;;14.20;3.88;;;10.10;80.20;;;;;;2536684;28;20057;-80
2023/12/10 04:19:52;;;;;;;9.43;3.55;;;10.10;80.10;;;;;;2535547;28;20045;-78
2023/12/10 04:21:06;;;;;;;22.15;5.03;;;10.10;79.90;;;;;;2540755;28;20406;-79
2023/12/10 04:22:21;;;;;;;15.45;2.78;;;10.10;79.80;;;;;;2539733;28;20044;-78
2023/12/10 04:23:35;;;;;;;15.70;4.03;;;10.10;79.60;;;;;;2543657;28;20045;-78
2023/12/10 04:24:49;;;;;;;28.35;5.13;;;10.10;79.60;;;;;;2543043;28;20056;-78
2023/12/10 04:26:04;;;;;;;16.48;3.08;;;10.20;79.60;;;;;;2531459;28;20580;-78
2023/12/10 04:27:23;;;;;;;28.17;6.75;;;10.20;79.60;;;;;;2528447;28;20045;-78
2023/12/10 04:28:38;;;;;;;14.75;4.20;;;10.20;79.50;;;;;;2540847;28;20051;-80
2023/12/10 04:29:53;;;;;;;17.83;4.65;;;10.20;79.50;;;;;;2534647;28;20046;-77
2023/12/10 04:31:07;;;;;;;15.23;3.13;;;10.20;79.40;;;;;;2542283;28;20413;-79
2023/12/10 04:32:23;;;;;;;12.40;4.72;;;10.10;79.00;;;;;;2538154;28;20478;-80
2023/12/10 04:33:37;;;;;;;13.40;3.63;;;10.20;78.80;;;;;;2540229;28;20049;-79
2023/12/10 04:34:51;;;;;;;18.88;4.50;;;10.20;78.70;;;;;;2541782;28;20041;-78
2023/12/10 04:36:07;;;;;;;17.58;2.97;;;10.20;78.80;;;;;;2532798;28;20048;-78
2023/12/10 04:37:20;;;;;;;34.33;6.68;;;10.20;78.60;;;;;;2538488;28;20044;-78
2023/12/10 04:38:35;;;;;;;22.50;5.00;;;10.20;78.50;;;;;;2536424;28;20053;-78
2023/12/10 04:39:49;;;;;;;9.05;3.88;;;10.20;78.40;;;;;;2540596;28;20048;-78
2023/12/10 04:41:04;;;;;;;30.45;7.65;;;10.20;78.40;;;;;;2525893;28;20060;-77
2023/12/10 04:42:17;;;;;;;18.65;3.85;;;10.20;78.40;;;;;;2537879;28;20056;-79
2023/12/10 04:43:32;;;;;;;7.30;2.35;;;10.20;78.10;;;;;;2543010;28;20044;-79
2023/12/10 04:44:46;;;;;;;19.00;3.38;;;10.20;77.90;;;;;;2543503;28;20045;-78
2023/12/10 04:46:01;;;;;;;9.48;3.45;;;10.20;78.00;;;;;;2541238;28;20072;-79
2023/12/10 04:47:14;;;;;;;18.75;3.78;;;10.20;77.80;;;;;;2536813;28;20045;-78
2023/12/10 04:48:30;;;;;;;17.67;3.58;;;10.20;77.80;;;;;;2543255;28;20049;-79
2023/12/10 04:49:44;;;;;;;15.07;2.80;;;10.20;77.60;;;;;;2543063;28;20059;-79
2023/12/10 04:50:59;;;;;;;19.45;4.70;;;10.20;77.60;;;;;;2542429;28;20405;-78
2023/12/10 04:52:13;;;;;;;21.67;5.28;;;10.20;77.70;;;;;;2538829;28;20132;-78
2023/12/10 04:53:27;;;;;;;16.42;3.03;;;10.20;77.60;;;;;;2539245;28;20052;-77
2023/12/10 04:54:41;;;;;;;10.32;2.95;;;10.20;78.30;;;;;;2535916;28;20426;-78
2023/12/10 04:55:56;;;;;;;11.95;4.05;;;10.20;77.60;;;;;;2542120;28;20040;-78
2023/12/10 04:57:10;;;;;;;13.82;2.88;;;10.20;77.60;;;;;;2543355;28;20045;-79
2023/12/10 04:58:25;;;;;;;17.80;5.63;;;10.20;77.40;;;;;;2537806;28;20041;-79
2023/12/10 04:59:38;;;;;;;18.33;3.35;;;10.20;77.40;;;;;;2532868;28;20060;-79
2023/12/10 05:00:53;;;;;;;23.73;5.30;;;10.20;77.40;;;;;;2528142;28;20056;-78
2023/12/10 05:02:07;;;;;;;19.38;5.95;;;10.20;77.20;;;;;;2548327;28;20489;-78
2023/12/10 05:03:21;;;;;;;18.10;4.18;;;10.20;76.90;;;;;;2543541;28;20037;-79
2023/12/10 05:04:36;;;;;;;14.68;3.78;;;10.30;76.80;;;;;;2544051;28;20045;-79
2023/12/10 05:05:51;;;;;;;15.73;3.95;;;10.30;76.70;;;;;;2543719;28;20053;-79
2023/12/10 05:07:05;;;;;;;17.48;6.28;;;10.20;76.60;;;;;;2530532;28;20628;-79
2023/12/10 05:08:19;;;;;;;15.13;5.18;;;10.30;76.90;;;;;;2525666;28;20050;-79
2023/12/10 05:09:33;;;;;;;24.65;8.90;;;10.30;76.70;;;;;;2532157;28;20049;-78
2023/12/10 05:10:48;;;;;;;25.45;6.75;;;10.30;76.80;;;;;;2535993;28;20053;-78
2023/12/10 05:12:02;;;;;;;19.25;4.10;;;10.30;76.70;;;;;;2536514;28;20057;-78
2023/12/10 05:13:16;;;;;;;16.13;5.22;;;10.30;76.70;;;;;;2537047;28;20057;-78
2023/12/10 05:14:30;;;;;;;10.15;3.80;;;10.30;76.70;;;;;;2541336;28;20048;-80
2023/12/10 05:15:45;;;;;;;20.67;7.55;;;10.30;76.50;;;;;;2543198;28;20072;-80
2023/12/10 05:16:59;;;;;;;15.15;3.83;;;10.30;76.40;;;;;;2527129;28;20877;-80
2023/12/10 05:18:13;;;;;;;23.25;5.28;;;10.30;76.40;;;;;;2545296;28;20037;-79
2023/12/10 05:19:27;;;;;;;15.02;4.10;;;10.30;76.40;;;;;;2545050;28;20040;-77
2023/12/10 05:20:43;;;;;;;19.00;8.77;;;10.20;76.50;;;;;;2545721;28;20632;-78
2023/12/10 05:21:57;;;;;;;10.18;3.85;;;10.30;76.40;;;;;;2537342;28;20049;-79
2023/12/10 05:23:11;;;;;;;20.88;6.38;;;10.30;76.20;;;;;;2541792;28;20037;-79
2023/12/10 05:24:25;;;;;;;15.32;4.55;;;10.20;76.10;;;;;;2530004;28;20069;-79
2023/12/10 05:25:40;;;;;;;21.17;4.15;;;10.30;76.30;;;;;;2539600;28;20049;-79
2023/12/10 05:26:53;;;;;;;26.10;12.80;;;10.30;76.20;;;;;;2535801;28;20491;-79
2023/12/10 05:28:08;;;;;;;5.93;3.22;;;10.20;76.80;;;;;;2537186;28;20037;-78
2023/12/10 05:29:22;;;;;;;19.23;6.18;;;10.30;75.80;;;;;;2545148;28;20044;-78
2023/12/10 05:30:37;;;;;;;17.98;9.98;;;10.30;75.60;;;;;;2538706;28;20056;-80
2023/12/10 05:31:51;;;;;;;18.05;5.85;;;10.30;75.50;;;;;;2543704;28;20049;-79
2023/12/10 05:33:05;;;;;;;12.55;5.43;;;10.30;75.50;;;;;;2545379;28;20055;-80
2023/12/10 05:34:19;;;;;;;21.85;13.82;;;10.30;75.30;;;;;;2541246;28;20673;-80
2023/12/10 05:35:34;;;;;;;47.08;26.98;;;10.30;75.40;;;;;;2541253;28;20044;-80
2023/12/10 05:36:49;;;;;;;59.38;35.63;;;10.30;75.50;;;;;;2528776;28;20050;-80
2023/12/10 05:38:06;;;;;;;39.55;23.00;;;10.40;75.60;;;;;;2535470;28;20064;-79
2023/12/10 05:39:19;;;;;;;20.67;4.47;;;10.30;75.40;;;;;;2539371;28;20047;-79
2023/12/10 05:40:34;;;;;;;24.23;6.15;;;10.30;75.40;;;;;;2545749;28;20526;-80
2023/12/10 05:41:48;;;;;;;9.13;2.97;;;10.30;75.20;;;;;;2536713;28;20065;-79
2023/12/10 05:43:02;;;;;;;18.88;6.97;;;10.30;75.20;;;;;;2544954;28;20049;-77
2023/12/10 05:44:16;;;;;;;8.27;3.08;;;10.30;75.00;;;;;;2541208;28;20045;-79
2023/12/10 05:45:31;;;;;;;20.30;4.88;;;10.30;74.80;;;;;;2536473;28;20042;-78
2023/12/10 05:46:44;;;;;;;25.33;8.45;;;10.30;74.80;;;;;;2542803;28;20060;-77
2023/12/10 05:47:59;;;;;;;23.15;4.80;;;10.40;74.90;;;;;;2543041;28;20044;-79
2023/12/10 05:49:13;;;;;;;14.82;4.38;;;10.40;75.10;;;;;;2538488;28;20052;-79
2023/12/10 05:50:27;;;;;;;15.32;4.68;;;10.40;75.30;;;;;;2545195;28;20043;-79
2023/12/10 05:51:41;;;;;;;10.90;4.32;;;10.30;75.20;;;;;;2544176;28;20445;-79
2023/12/10 05:52:57;;;;;;;18.25;5.20;;;10.40;75.10;;;;;;2544482;28;20045;-79
2023/12/10 05:54:11;;;;;;;13.82;2.72;;;10.30;75.00;;;;;;2538147;28;20041;-78
2023/12/10 05:55:26;;;;;;;9.15;4.47;;;10.40;75.00;;;;;;2544637;28;20118;-78
2023/12/10 05:56:41;;;;;;;24.75;3.92;;;10.30;74.80;;;;;;2544925;28;20045;-78
2023/12/10 05:57:56;;;;;;;25.77;6.18;;;10.40;74.70;;;;;;2544045;28;20060;-78
2023/12/10 05:59:09;;;;;;;16.08;3.30;;;10.40;74.70;;;;;;2537610;28;20052;-78
2023/12/10 06:00:24;;;;;;;19.90;4.95;;;10.40;74.70;;;;;;2535501;28;20042;-78
2023/12/10 06:01:38;;;;;;;13.68;4.90;;;10.40;74.50;;;;;;2531254;28;20041;-78
2023/12/10 06:02:52;;;;;;;23.95;4.90;;;10.30;74.30;;;;;;2543687;28;20485;-79
2023/12/10 06:04:06;;;;;;;17.55;4.60;;;10.40;74.20;;;;;;2544233;28;20049;-78
2023/12/10 06:05:21;;;;;;;8.48;4.07;;;10.30;74.30;;;;;;2544346;28;20041;-79
2023/12/10 06:06:35;;;;;;;25.40;3.50;;;10.30;74.40;;;;;;2545090;28;20049;-79
2023/12/10 06:07:49;;;;;;;18.85;3.25;;;10.30;74.60;;;;;;2544128;28;20040;-78
2023/12/10 06:09:04;;;;;;;24.77;5.90;;;10.30;74.40;;;;;;2533106;28;20049;-79
2023/12/10 06:10:19;;;;;;;13.10;4.72;;;10.40;74.40;;;;;;2528909;28;20098;-79
2023/12/10 06:11:33;;;;;;;15.38;3.30;;;10.40;74.40;;;;;;2538060;28;20054;-77
2023/12/10 06:12:49;;;;;;;12.13;2.80;;;10.40;74.30;;;;;;2544710;28;20051;-78
2023/12/10 06:14:03;;;;;;;15.38;4.00;;;10.40;73.90;;;;;;2544923;28;20091;-79
2023/12/10 06:15:18;;;;;;;12.77;4.78;;;10.40;73.60;;;;;;2541174;28;20414;-79
2023/12/10 06:16:32;;;;;;;6.25;2.70;;;10.40;73.40;;;;;;2529343;28;20057;-79
2023/12/10 06:17:46;;;;;;;16.55;3.20;;;10.40;73.20;;;;;;2537754;28;20033;-79
2023/12/10 06:19:00;;;;;;;20.92;2.80;;;10.40;73.10;;;;;;2543932;28;20045;-79
2023/12/10 06:20:15;;;;;;;19.25;4.57;;;10.40;73.20;;;;;;2544941;28;20071;-79
2023/12/10 06:21:30;;;;;;;14.52;4.25;;;10.30;73.40;;;;;;2539270;28;20049;-77
2023/12/10 06:22:44;;;;;;;23.13;6.40;;;10.30;73.60;;;;;;2542137;28;20049;-79
2023/12/10 06:23:58;;;;;;;11.10;5.57;;;10.30;73.80;;;;;;2544472;28;20047;-80
2023/12/10 06:25:14;;;;;;;21.80;4.30;;;10.30;74.00;;;;;;2541838;28;20495;-79
2023/12/10 06:26:28;;;;;;;17.63;5.28;;;10.40;74.10;;;;;;2539852;28;20048;-79
2023/12/10 06:27:42;;;;;;;9.25;2.55;;;10.40;74.20;;;;;;2537419;28;20041;-79